Time;durP1;ratioP1;P1;durP2;ratioP2;P2;SDS_P1;SDS_P2;PMS_P1;PMS_P2;Temp;Humidity;BMP_temperature;BMP_pressure;BME280_temperature;BME280_humidity;BME280_pressure;Samples;Min_cycle;Max_cycle;Signal;HPM_P1;HPM_P2
2021/12/07 00:00:22;;;;;;;22.83;15.93;;;2.80;99.90;;;;;;5134452;27;20510;-56
2021/12/07 00:02:49;;;;;;;19.02;13.98;;;2.70;99.90;;;;;;5134206;27;20078;-56
2021/12/07 00:05:15;;;;;;;23.73;16.73;;;2.70;99.90;;;;;;5133974;27;20070;-56
2021/12/07 00:07:43;;;;;;;;;;;2.60;99.90;;;;;;5134723;27;20377;-56
2021/12/07 00:10:12;;;;;;;22.05;14.13;;;2.60;99.90;;;;;;5134034;27;19919;-56
2021/12/07 00:12:41;;;;;;;24.98;14.35;;;2.60;99.90;;;;;;5134301;27;20472;-56
2021/12/07 00:15:08;;;;;;;27.83;16.20;;;2.60;99.90;;;;;;5133332;27;20513;-56
2021/12/07 00:17:34;;;;;;;23.33;14.95;;;2.50;99.90;;;;;;5133928;27;20043;-57
2021/12/07 00:20:04;;;;;;;26.05;15.63;;;2.50;99.90;;;;;;5133776;27;20054;-57
2021/12/07 00:22:30;;;;;;;24.30;15.70;;;2.50;99.90;;;;;;5134497;27;20051;-57
2021/12/07 00:24:55;;;;;;;24.67;16.33;;;2.40;99.90;;;;;;5132919;27;20042;-56
2021/12/07 00:27:21;;;;;;;25.10;15.77;;;2.30;99.90;;;;;;5133781;27;20042;-57
2021/12/07 00:29:46;;;;;;;26.07;15.83;;;2.30;99.90;;;;;;5133647;27;20054;-56
2021/12/07 00:32:29;;;;;;;23.73;15.17;;;2.20;99.90;;;;;;5134076;27;20464;-57
2021/12/07 00:37:41;;;;;;;24.65;16.25;;;2.10;99.90;;;;;;5131878;27;20047;-56
2021/12/07 00:40:09;;;;;;;28.75;16.58;;;2.00;99.90;;;;;;5133029;27;20488;-57
2021/12/07 00:42:35;;;;;;;28.23;17.20;;;1.90;99.90;;;;;;5133803;27;20043;-56
2021/12/07 00:45:01;;;;;;;28.30;16.27;;;1.90;99.90;;;;;;5132864;27;20038;-56
2021/12/07 00:47:27;;;;;;;20.10;14.40;;;1.80;99.90;;;;;;5133456;27;20280;-57
2021/12/07 00:49:53;;;;;;;28.17;16.73;;;1.80;99.90;;;;;;5133166;27;20054;-56
2021/12/07 00:52:19;;;;;;;25.05;16.23;;;1.80;99.90;;;;;;5133532;27;20039;-56
2021/12/07 00:54:44;;;;;;;27.70;15.25;;;1.70;99.90;;;;;;5132493;27;20544;-56
2021/12/07 00:57:10;;;;;;;23.70;16.10;;;1.70;99.90;;;;;;5132215;27;20071;-57
2021/12/07 00:59:36;;;;;;;25.23;16.50;;;1.60;99.90;;;;;;5132781;27;20080;-56
2021/12/07 01:02:02;;;;;;;31.77;17.07;;;1.60;99.90;;;;;;5133031;27;20091;-56
2021/12/07 01:04:28;;;;;;;29.23;17.00;;;1.60;99.90;;;;;;5132222;27;20038;-57
2021/12/07 01:09:32;;;;;;;26.77;16.17;;;1.60;99.90;;;;;;5131758;27;20408;-55
2021/12/07 01:25:47;;;;;;;29.23;17.48;;;1.50;99.90;;;;;;5132700;27;20492;-56
2021/12/07 01:28:24;;;;;;;26.17;16.20;;;1.50;99.90;;;;;;5131663;27;20050;-56
2021/12/07 01:31:06;;;;;;;26.40;17.05;;;1.50;99.90;;;;;;5132543;27;20127;-56
2021/12/07 01:59:59;;;;;;;33.53;19.02;;;1.30;99.90;;;;;;5131397;27;20130;-55
2021/12/07 02:02:27;;;;;;;34.15;19.48;;;1.30;99.90;;;;;;5131724;27;20119;-56
2021/12/07 02:04:52;;;;;;;30.55;18.90;;;1.30;99.90;;;;;;5131061;27;20064;-56
2021/12/07 02:07:18;;;;;;;27.90;18.17;;;1.30;99.90;;;;;;5131598;27;20118;-56
2021/12/07 02:09:50;;;;;;;30.37;18.33;;;1.30;99.90;;;;;;5130715;27;20103;-56
2021/12/07 02:12:16;;;;;;;26.92;18.23;;;1.30;99.90;;;;;;5131849;27;20277;-56
2021/12/07 02:14:42;;;;;;;26.02;16.77;;;1.30;99.90;;;;;;5130804;27;20028;-56
2021/12/07 02:17:12;;;;;;;27.50;18.40;;;1.30;99.90;;;;;;5131635;27;20504;-56
2021/12/07 02:19:37;;;;;;;27.48;18.08;;;1.30;99.90;;;;;;5130842;27;20039;-56
2021/12/07 02:22:04;;;;;;;25.42;16.67;;;1.30;99.90;;;;;;5131738;27;20039;-56
2021/12/07 02:24:30;;;;;;;27.73;18.27;;;1.30;99.90;;;;;;5111881;27;20122;-56
2021/12/07 02:26:56;;;;;;;24.27;16.50;;;1.30;99.90;;;;;;5131616;27;20558;-56
2021/12/07 02:29:23;;;;;;;25.58;18.25;;;1.30;99.90;;;;;;5130760;27;20473;-56
2021/12/07 02:31:50;;;;;;;29.73;18.80;;;1.30;99.90;;;;;;5131787;27;20065;-56
2021/12/07 02:34:17;;;;;;;29.70;19.33;;;1.30;99.90;;;;;;5130790;27;20155;-56
2021/12/07 02:36:44;;;;;;;26.95;18.63;;;1.30;99.90;;;;;;5131466;27;20385;-56
2021/12/07 02:39:11;;;;;;;25.75;18.45;;;1.30;99.90;;;;;;5131158;27;20054;-56
2021/12/07 02:41:39;;;;;;;25.83;18.38;;;1.30;99.90;;;;;;5131769;27;20039;-56
2021/12/07 02:44:07;;;;;;;28.35;19.35;;;1.30;99.90;;;;;;5130564;27;20537;-56
2021/12/07 02:46:38;;;;;;;25.63;17.98;;;1.30;99.90;;;;;;5113519;27;20047;-56
2021/12/07 02:49:05;;;;;;;25.02;18.25;;;1.30;99.90;;;;;;5130971;27;20031;-56
2021/12/07 02:51:31;;;;;;;23.42;16.45;;;1.30;99.90;;;;;;5131215;27;20058;-56
2021/12/07 02:53:57;;;;;;;27.83;17.65;;;1.30;99.90;;;;;;5130622;27;20035;-56
2021/12/07 02:56:24;;;;;;;25.88;17.50;;;1.30;99.90;;;;;;5131488;27;20031;-56
2021/12/07 02:58:50;;;;;;;23.83;16.35;;;1.30;99.90;;;;;;5130428;27;20167;-56
2021/12/07 03:01:25;;;;;;;;;;;1.30;99.90;;;;;;5131015;27;20047;-56
2021/12/07 03:04:03;;;;;;;25.63;18.02;;;1.40;99.90;;;;;;5129754;27;19926;-56
2021/12/07 03:26:05;;;;;;;29.38;19.27;;;1.40;99.90;;;;;;5130357;28;20075;-56
2021/12/07 03:28:33;;;;;;;29.17;19.25;;;1.40;99.90;;;;;;5129862;28;20079;-56
2021/12/07 03:30:59;;;;;;;27.70;18.67;;;1.40;99.90;;;;;;5130174;28;20054;-56
2021/12/07 03:33:25;;;;;;;30.98;21.17;;;1.40;99.90;;;;;;5128763;28;20031;-56
2021/12/07 03:35:50;;;;;;;28.58;19.77;;;1.40;99.90;;;;;;5130557;28;20147;-56
2021/12/07 03:38:17;;;;;;;32.85;19.17;;;1.40;99.90;;;;;;5129955;28;20027;-56
2021/12/07 03:40:43;;;;;;;;;;;1.40;99.90;;;;;;5131044;28;20050;-56
2021/12/07 03:43:10;;;;;;;30.65;19.40;;;1.50;99.90;;;;;;5129887;28;20370;-56
2021/12/07 03:45:36;;;;;;;33.67;21.48;;;1.50;99.90;;;;;;5130541;28;20050;-56
2021/12/07 03:48:03;;;;;;;;;;;1.50;99.90;;;;;;5130034;28;20043;-56
2021/12/07 03:50:29;;;;;;;31.63;20.00;;;1.50;99.90;;;;;;5130861;28;19919;-56
2021/12/07 03:52:55;;;;;;;29.47;19.80;;;1.50;99.90;;;;;;5130411;28;20039;-56
2021/12/07 03:55:21;;;;;;;29.95;21.63;;;1.50;99.90;;;;;;5111361;28;20027;-56
2021/12/07 03:57:48;;;;;;;31.98;20.25;;;1.50;99.90;;;;;;5128829;28;20297;-56
2021/12/07 04:00:19;;;;;;;28.73;19.08;;;1.60;99.90;;;;;;5128880;28;20039;-56
2021/12/07 04:02:46;;;;;;;30.35;19.58;;;1.50;99.90;;;;;;5130410;28;20035;-56
2021/12/07 04:05:15;;;;;;;32.63;20.65;;;1.50;99.90;;;;;;5129746;28;20403;-56
2021/12/07 04:07:42;;;;;;;36.17;22.55;;;1.50;99.90;;;;;;5129939;28;20075;-56
2021/12/07 04:10:13;;;;;;;30.98;21.48;;;1.50;99.90;;;;;;5130148;28;20132;-56
2021/12/07 04:12:39;;;;;;;33.40;21.10;;;1.50;99.90;;;;;;5131963;27;20043;-57
2021/12/07 04:15:08;;;;;;;32.75;20.73;;;1.50;99.90;;;;;;5133698;27;20038;-56
2021/12/07 04:17:34;;;;;;;30.98;20.05;;;1.50;99.90;;;;;;5134418;27;20053;-56
2021/12/07 04:19:59;;;;;;;30.02;19.33;;;1.40;99.90;;;;;;5133509;27;20071;-57
2021/12/07 04:22:25;;;;;;;30.90;19.97;;;1.40;99.90;;;;;;5134203;27;20073;-57
2021/12/07 04:24:51;;;;;;;29.90;19.65;;;1.50;99.90;;;;;;5132734;27;20288;-56
2021/12/07 04:27:17;;;;;;;30.83;20.37;;;1.40;99.90;;;;;;5133353;27;20050;-56
2021/12/07 04:29:43;;;;;;;33.95;20.48;;;1.50;99.90;;;;;;5133056;27;20045;-56
2021/12/07 04:32:08;;;;;;;28.50;18.80;;;1.40;99.90;;;;;;5134176;27;20106;-56
2021/12/07 04:34:34;;;;;;;30.63;19.30;;;1.40;99.90;;;;;;5133089;27;20031;-57
2021/12/07 04:37:00;;;;;;;29.60;19.37;;;1.40;99.90;;;;;;5133813;27;20035;-56
2021/12/07 04:39:25;;;;;;;32.30;21.07;;;1.40;99.90;;;;;;5133047;27;20093;-56
2021/12/07 04:41:52;;;;;;;30.23;18.97;;;1.50;99.90;;;;;;5133569;27;20031;-56
2021/12/07 04:44:19;;;;;;;28.95;19.00;;;1.40;99.90;;;;;;5132576;27;20454;-56
2021/12/07 04:46:55;;;;;;;32.40;19.65;;;1.50;99.90;;;;;;5133753;27;20116;-56
2021/12/07 04:49:47;;;;;;;30.27;19.77;;;1.50;99.90;;;;;;5132724;27;20039;-57
2021/12/07 04:57:46;;;;;;;27.05;18.17;;;1.50;99.90;;;;;;5112834;28;20048;-56
2021/12/07 05:00:14;;;;;;;;;;;1.50;99.90;;;;;;5113110;28;20053;-56
2021/12/07 05:02:43;;;;;;;;;;;1.40;99.90;;;;;;5132394;27;19967;-56
2021/12/07 05:05:10;;;;;;;;;;;1.40;99.90;;;;;;5132543;27;20387;-56
2021/12/07 05:07:41;;;;;;;;;;;1.40;99.90;;;;;;5133369;27;19915;-56
2021/12/07 05:10:16;;;;;;;;;;;1.40;99.90;;;;;;5112764;28;19927;-56
2021/12/07 05:12:58;;;;;;;;;;;1.50;99.90;;;;;;5117093;27;19999;-56
2021/12/07 05:15:54;;;;;;;;;;;1.40;99.90;;;;;;5132903;27;19915;-56
2021/12/07 05:18:35;;;;;;;;;;;1.40;99.90;;;;;;5132428;27;19916;-57
2021/12/07 05:24:06;;;;;;;;;;;1.40;99.90;;;;;;5131356;27;19915;-56
2021/12/07 05:40:11;;;;;;;;;;;1.30;99.90;;;;;;5132598;27;19915;-56
2021/12/07 05:42:38;;;;;;;;;;;1.40;99.90;;;;;;5133331;27;20343;-57
2021/12/07 05:45:05;;;;;;;;;;;1.40;99.90;;;;;;5132909;27;19929;-56
2021/12/07 05:47:31;;;;;;;;;;;1.40;99.90;;;;;;5132651;27;19921;-56
2021/12/07 05:49:56;;;;;;;;;;;1.40;99.90;;;;;;5132119;27;19919;-56
2021/12/07 05:52:22;;;;;;;;;;;1.30;99.90;;;;;;5132769;27;20132;-56
2021/12/07 05:54:47;;;;;;;;;;;1.30;99.90;;;;;;5131541;27;20372;-56
2021/12/07 05:57:13;;;;;;;;;;;1.40;99.90;;;;;;5132329;27;19916;-57
2021/12/07 05:59:39;;;;;;;;;;;1.40;99.90;;;;;;5131695;27;19920;-56
2021/12/07 06:02:04;;;;;;;;;;;1.40;99.90;;;;;;5132326;27;19915;-56
2021/12/07 06:04:30;;;;;;;;;;;1.40;99.90;;;;;;5131498;27;19919;-57
2021/12/07 06:06:56;;;;;;;;;;;1.30;99.90;;;;;;5132041;27;19951;-56
2021/12/07 06:09:22;;;;;;;;;;;1.30;99.90;;;;;;5131038;27;19919;-56
2021/12/07 06:11:50;;;;;;;;;;;1.30;99.90;;;;;;5132318;27;19929;-56
2021/12/07 06:14:19;;;;;;;;;;;1.30;99.90;;;;;;5131539;27;19915;-55
2021/12/07 06:16:45;;;;;;;;;;;1.20;99.90;;;;;;5131788;27;19915;-55
2021/12/07 06:19:10;;;;;;;;;;;1.20;99.90;;;;;;5131294;27;19919;-55
2021/12/07 06:21:36;;;;;;;;;;;1.20;99.90;;;;;;5132341;27;19923;-54
2021/12/07 06:24:01;;;;;;;;;;;1.20;99.90;;;;;;5130649;27;19946;-54
2021/12/07 06:26:27;;;;;;;;;;;1.20;99.90;;;;;;5132313;27;19915;-55
2021/12/07 06:28:52;;;;;;;;;;;1.20;99.90;;;;;;5131159;27;19923;-54
2021/12/07 06:31:18;;;;;;;;;;;1.30;99.90;;;;;;5132267;27;20210;-55
2021/12/07 06:33:43;;;;;;;;;;;1.30;99.90;;;;;;5112727;27;19916;-55
2021/12/07 06:36:09;;;;;;;;;;;1.30;99.90;;;;;;5130867;27;19968;-56
2021/12/07 06:38:35;;;;;;;;;;;1.20;99.90;;;;;;5131505;27;19915;-55
2021/12/07 06:41:02;;;;;;;;;;;1.20;99.90;;;;;;5132096;27;19994;-54
2021/12/07 06:43:27;;;;;;;;;;;1.20;99.90;;;;;;5129397;27;19919;-55
2021/12/07 06:45:53;;;;;;;;;;;1.20;99.90;;;;;;5131601;27;20432;-55
2021/12/07 06:48:19;;;;;;;;;;;1.20;99.90;;;;;;5131125;27;19922;-53
2021/12/07 06:50:44;;;;;;;;;;;1.20;99.90;;;;;;5131541;27;19927;-56
2021/12/07 06:53:10;;;;;;;;;;;1.30;99.90;;;;;;5130041;27;20284;-55
2021/12/07 06:55:35;;;;;;;;;;;1.30;99.90;;;;;;5131172;27;20019;-55
2021/12/07 06:58:01;;;;;;;;;;;1.30;99.90;;;;;;5130656;27;19926;-55
2021/12/07 07:00:27;;;;;;;;;;;1.20;99.90;;;;;;5131234;27;19915;-55
2021/12/07 07:02:52;;;;;;;;;;;1.10;99.90;;;;;;5130390;27;19915;-55
2021/12/07 07:05:18;;;;;;;;;;;1.20;99.90;;;;;;5131038;27;19915;-55
2021/12/07 07:07:44;;;;;;;;;;;1.20;99.90;;;;;;5130771;27;20006;-56
2021/12/07 07:10:11;;;;;;;;;;;1.20;99.90;;;;;;5131539;28;20148;-55
2021/12/07 07:12:36;;;;;;;;;;;1.20;99.90;;;;;;5147782;27;20089;-55
2021/12/07 07:15:03;;;;;;;;;;;1.20;99.90;;;;;;5131188;28;20052;-56
2021/12/07 07:17:28;;;;;;;;;;;1.20;99.90;;;;;;5131414;28;19922;-55
2021/12/07 07:19:54;;;;;;;;;;;1.20;99.90;;;;;;5131379;28;19915;-55
2021/12/07 07:22:19;;;;;;;;;;;1.20;99.90;;;;;;5130415;28;20337;-55
2021/12/07 07:24:45;;;;;;;;;;;1.20;99.90;;;;;;5129557;28;20002;-56
2021/12/07 07:27:10;;;;;;;;;;;1.20;99.90;;;;;;5131100;28;20372;-55
2021/12/07 07:29:36;;;;;;;;;;;1.20;99.90;;;;;;5128299;28;19966;-55
2021/12/07 07:32:01;;;;;;;;;;;1.20;99.90;;;;;;5130706;28;20435;-55
2021/12/07 07:34:27;;;;;;;;;;;1.20;99.90;;;;;;5130822;28;20291;-56
2021/12/07 07:36:53;;;;;;;;;;;1.30;99.90;;;;;;5130363;28;19922;-56
2021/12/07 07:39:18;;;;;;;;;;;1.30;99.90;;;;;;5111735;28;20022;-56
2021/12/07 07:41:44;;;;;;;;;;;1.30;99.90;;;;;;5130851;28;19916;-56
2021/12/07 07:44:09;;;;;;;;;;;1.40;99.90;;;;;;5129998;28;19919;-56
2021/12/07 07:46:35;;;;;;;;;;;1.40;99.90;;;;;;5131020;27;19998;-56
2021/12/07 07:49:00;;;;;;;;;;;1.50;99.90;;;;;;5134207;27;20014;-55
2021/12/07 07:51:26;;;;;;;;;;;1.50;99.90;;;;;;5143141;27;19962;-56
2021/12/07 07:53:54;;;;;;;;;;;1.50;99.90;;;;;;5134879;27;20028;-56
2021/12/07 07:56:20;;;;;;;;;;;1.60;99.90;;;;;;5134798;27;20271;-56
2021/12/07 07:58:45;;;;;;;;;;;1.60;99.90;;;;;;5133728;27;19922;-56
2021/12/07 08:01:11;;;;;;;;;;;1.60;99.90;;;;;;5135100;27;19916;-53
2021/12/07 08:03:36;;;;;;;;;;;1.60;99.90;;;;;;5134403;27;19922;-56
2021/12/07 08:06:02;;;;;;;;;;;1.70;99.90;;;;;;5134193;27;19915;-55
2021/12/07 08:08:27;;;;;;;;;;;1.70;99.90;;;;;;5132868;27;19968;-56
2021/12/07 08:10:53;;;;;;;;;;;1.70;99.90;;;;;;5133899;27;20299;-56
2021/12/07 08:13:19;;;;;;;;;;;1.80;99.90;;;;;;5134099;27;19922;-54
2021/12/07 08:15:46;;;;;;;;;;;1.80;99.90;;;;;;5133826;27;20001;-57
2021/12/07 08:18:12;;;;;;;;;;;1.90;99.90;;;;;;5133281;27;19915;-56
2021/12/07 08:20:38;;;;;;;;;;;2.20;99.90;;;;;;5132940;27;20281;-57
2021/12/07 08:23:04;;;;;;;;;;;2.70;99.90;;;;;;5133901;27;19984;-57
2021/12/07 08:25:34;;;;;;;;;;;3.30;99.90;;;;;;5134131;27;20303;-57
2021/12/07 08:27:59;;;;;;;;;;;3.90;99.90;;;;;;5133786;27;20371;-57
2021/12/07 08:30:25;;;;;;;;;;;4.60;99.90;;;;;;5134427;27;19919;-57
2021/12/07 08:32:50;;;;;;;;;;;5.30;99.90;;;;;;5134105;27;20409;-58
2021/12/07 08:35:17;;;;;;;;;;;5.90;99.90;;;;;;5132297;27;19919;-58
2021/12/07 08:37:46;;;;;;;;;;;6.30;99.90;;;;;;5133255;27;20376;-58
2021/12/07 08:40:14;;;;;;;;;;;6.80;99.90;;;;;;5134011;27;20001;-58
2021/12/07 08:42:39;;;;;;;;;;;7.30;99.90;;;;;;5134220;27;19950;-58
2021/12/07 08:45:06;;;;;;;;;;;7.90;99.90;;;;;;5133076;27;19954;-58
2021/12/07 08:47:31;;;;;;;;;;;8.30;99.90;;;;;;5133759;27;20303;-57
2021/12/07 08:49:57;;;;;;;;;;;8.80;99.90;;;;;;5129276;27;19919;-58
2021/12/07 08:52:23;;;;;;;;;;;9.10;99.50;;;;;;5134219;27;19966;-59
2021/12/07 08:59:58;;;;;;;;;;;10.40;97.70;;;;;;5102112;27;19923;-58
2021/12/07 09:02:25;;;;;;;;;;;10.60;95.10;;;;;;5112901;27;19922;-57
2021/12/07 09:04:51;;;;;;;;;;;10.80;96.50;;;;;;5109990;27;20375;-58
2021/12/07 09:07:17;;;;;;;;;;;11.00;94.70;;;;;;5129213;27;19958;-58
2021/12/07 09:09:43;;;;;;;;;;;11.40;97.20;;;;;;5124117;27;20072;-58
2021/12/07 09:12:12;;;;;;;;;;;11.80;95.20;;;;;;5126184;27;19915;-58
2021/12/07 09:14:38;;;;;;;;;;;12.10;91.50;;;;;;5127972;27;19988;-58
2021/12/07 09:17:05;;;;;;;;;;;12.30;93.90;;;;;;5125692;27;19915;-58
2021/12/07 09:19:31;;;;;;;;;;;12.50;91.80;;;;;;5127990;27;19930;-58
2021/12/07 09:21:57;;;;;;;;;;;12.80;92.80;;;;;;5129300;27;19919;-58
2021/12/07 09:24:23;;;;;;;;;;;13.00;87.90;;;;;;5128262;27;19915;-58
2021/12/07 09:26:49;;;;;;;;;;;13.20;85.00;;;;;;5125966;27;19977;-58
2021/12/07 09:29:14;;;;;;;;;;;13.30;82.50;;;;;;5127934;27;19915;-58
2021/12/07 09:31:40;;;;;;;;;;;13.30;80.70;;;;;;5127377;27;19992;-58
2021/12/07 09:34:11;;;;;;;;;;;13.10;87.50;;;;;;5121624;27;19915;-57
2021/12/07 09:36:37;;;;;;;;;;;12.70;80.90;;;;;;5127094;27;20188;-57
2021/12/07 09:39:04;;;;;;;;;;;12.10;79.40;;;;;;5125716;27;19968;-57
2021/12/07 09:41:30;;;;;;;;;;;11.40;85.70;;;;;;5124924;27;19930;-57
2021/12/07 09:43:55;;;;;;;;;;;10.60;84.70;;;;;;5127816;27;20296;-57
2021/12/07 09:46:21;;;;;;;;;;;10.30;92.10;;;;;;5126717;27;20457;-57
2021/12/07 09:48:46;;;;;;;;;;;10.20;91.70;;;;;;5126615;27;20245;-56
2021/12/07 09:51:16;;;;;;;;;;;9.80;91.30;;;;;;5125755;27;20375;-57
2021/12/07 09:53:42;;;;;;;;;;;9.10;92.00;;;;;;5126924;27;19923;-58
2021/12/07 09:56:08;;;;;;;;;;;8.30;93.20;;;;;;5120545;27;19926;-57
2021/12/07 09:58:34;;;;;;;;;;;7.60;95.40;;;;;;5126671;27;19915;-57
2021/12/07 10:00:59;;;;;;;;;;;7.00;96.90;;;;;;5126906;27;19972;-57
2021/12/07 10:03:25;;;;;;;;;;;6.40;98.30;;;;;;5126552;27;19919;-57
2021/12/07 10:05:51;;;;;;;;;;;6.00;99.70;;;;;;5128186;27;19915;-57
2021/12/07 10:08:17;;;;;;;;;;;5.70;99.90;;;;;;5127229;27;19989;-57
2021/12/07 10:10:44;;;;;;;;;;;5.60;99.90;;;;;;5126689;27;20422;-57
2021/12/07 10:13:10;;;;;;;;;;;5.50;99.90;;;;;;5125742;27;19923;-57
2021/12/07 10:15:37;;;;;;;;;;;5.40;99.90;;;;;;5128459;27;19919;-57
2021/12/07 10:18:17;;;;;;;;;;;5.30;99.90;;;;;;5126300;27;19968;-57
2021/12/07 10:20:43;;;;;;;;;;;5.00;99.90;;;;;;5123232;27;20119;-57
2021/12/07 10:23:21;;;;;;;;;;;4.80;99.90;;;;;;5126596;27;20389;-57
2021/12/07 10:25:54;;;;;;;;;;;4.60;99.90;;;;;;5127055;27;19916;-57
2021/12/07 10:28:27;;;;;;;;;;;4.40;99.90;;;;;;5122244;27;19956;-56
2021/12/07 10:30:54;;;;;;;;;;;4.40;99.90;;;;;;5126688;27;19919;-57
2021/12/07 10:33:33;;;;;;;;;;;4.40;99.90;;;;;;5126832;27;19923;-56
2021/12/07 10:36:19;;;;;;;;;;;4.30;99.90;;;;;;5127061;27;20002;-57
2021/12/07 10:38:56;;;;;;;;;;;4.50;99.90;;;;;;5120322;27;19916;-57
2021/12/07 10:41:24;;;;;;;;;;;5.40;99.90;;;;;;5119236;27;20327;-57
2021/12/07 10:43:49;;;;;;;;;;;6.70;99.90;;;;;;5124631;27;19919;-57
2021/12/07 10:46:30;;;;;;;;;;;7.80;99.90;;;;;;5126430;27;19925;-57
2021/12/07 10:49:10;;;;;;;;;;;8.60;99.90;;;;;;5124126;27;19925;-57
2021/12/07 10:51:35;;;;;;;;;;;9.10;99.40;;;;;;5125782;27;19923;-57
2021/12/07 10:54:01;;;;;;;;;;;9.30;98.80;;;;;;5126329;27;20538;-57
2021/12/07 10:56:31;;;;;;;;;;;9.50;98.50;;;;;;5108048;27;19915;-57
2021/12/07 10:58:59;;;;;;;;;;;9.50;97.90;;;;;;5124355;27;19915;-57
2021/12/07 11:01:32;;;;;;;;;;;9.20;96.90;;;;;;5126404;27;19919;-57
2021/12/07 11:04:16;;;;;;;;;;;8.80;97.40;;;;;;5125216;27;20390;-57
2021/12/07 11:07:01;;;;;;;;;;;8.40;98.00;;;;;;5125608;27;20288;-56
2021/12/07 11:09:26;;;;;;;;;;;8.00;99.10;;;;;;5119261;28;19946;-57
2021/12/07 11:12:05;;;;;;;;;;;8.00;99.90;;;;;;5124014;27;20456;-57
2021/12/07 11:14:38;;;;;;;;;;;8.20;99.90;;;;;;5125125;27;19923;-57
2021/12/07 11:17:03;;;;;;;;;;;9.00;99.90;;;;;;5124921;28;20007;-57
2021/12/07 11:19:29;;;;;;;;;;;10.20;99.50;;;;;;5125500;28;19984;-57
2021/12/07 11:21:55;;;;;;;;;;;11.30;97.20;;;;;;5126352;27;19916;-57
2021/12/07 11:24:20;;;;;;;;;;;11.60;92.40;;;;;;5128242;27;19919;-56
2021/12/07 11:29:40;;;;;;;;;;;10.50;93.50;;;;;;5129616;27;19919;-56
2021/12/07 11:32:07;;;;;;;;;;;9.90;95.10;;;;;;5131087;27;19964;-56
2021/12/07 11:34:41;;;;;;;;;;;9.30;95.70;;;;;;5128278;27;19967;-56
2021/12/07 11:37:08;;;;;;;;;;;9.00;97.40;;;;;;5130304;27;19919;-56
2021/12/07 11:39:36;;;;;;;;;;;9.60;99.40;;;;;;5129622;27;19915;-57
2021/12/07 11:42:03;;;;;;;;;;;10.30;98.20;;;;;;5131327;27;19923;-56
2021/12/07 11:44:30;;;;;;;;;;;11.00;96.10;;;;;;5129905;27;19922;-57
2021/12/07 11:46:56;;;;;;;;;;;11.00;94.00;;;;;;5126506;27;20304;-57
2021/12/07 11:49:23;;;;;;;;;;;11.50;95.30;;;;;;5129773;27;19919;-57
2021/12/07 11:51:50;;;;;;;;;;;12.30;93.70;;;;;;5130623;27;19942;-57
2021/12/07 11:54:16;;;;;;;;;;;13.10;93.10;;;;;;5124533;27;19920;-57
2021/12/07 11:56:43;;;;;;;;;;;13.90;90.30;;;;;;5129906;27;19915;-57
2021/12/07 11:59:10;;;;;;;;;;;14.70;86.00;;;;;;5129438;27;20623;-57
2021/12/07 12:01:35;;;;;;;;;;;14.90;75.00;;;;;;5129779;27;19945;-58
2021/12/07 12:04:01;;;;;;;;;;;14.90;76.80;;;;;;5129338;27;19990;-57
2021/12/07 12:06:27;;;;;;;;;;;15.10;69.10;;;;;;5130022;27;19919;-57
2021/12/07 12:08:53;;;;;;;;;;;15.20;75.20;;;;;;5129731;27;20034;-57
2021/12/07 12:11:21;;;;;;;;;;;15.50;74.60;;;;;;5130020;27;20403;-58
2021/12/07 12:14:03;;;;;;;;;;;15.80;71.70;;;;;;5129204;27;19915;-57
2021/12/07 12:16:41;;;;;;;;;;;15.70;68.80;;;;;;5123808;27;19993;-58
2021/12/07 12:19:12;;;;;;;;;;;15.70;68.90;;;;;;5128743;27;19915;-57
2021/12/07 12:21:44;;;;;;;;;;;15.90;70.30;;;;;;5128719;27;20015;-57
2021/12/07 12:24:30;;;;;;;;;;;16.10;67.20;;;;;;5128009;27;19919;-57
2021/12/07 12:27:07;;;;;;;;;;;16.00;67.60;;;;;;5110431;27;19922;-57
2021/12/07 12:29:34;;;;;;;;;;;15.50;65.00;;;;;;5121868;27;20415;-57
2021/12/07 12:31:59;;;;;;;;;;;15.00;65.20;;;;;;5126708;27;19915;-58
2021/12/07 12:34:26;;;;;;;;;;;14.60;68.10;;;;;;5124294;27;19915;-57
2021/12/07 12:36:59;;;;;;;;;;;14.40;70.40;;;;;;5129291;27;20372;-57
2021/12/07 12:39:44;;;;;;;;;;;14.20;72.70;;;;;;5127136;27;19927;-57
2021/12/07 12:42:10;;;;;;;;;;;14.00;71.80;;;;;;5128578;27;19915;-58
2021/12/07 12:44:37;;;;;;;;;;;13.80;73.20;;;;;;5128730;27;19950;-57
2021/12/07 12:47:04;;;;;;;;;;;13.60;75.40;;;;;;5129869;27;20346;-57
2021/12/07 12:49:39;;;;;;;;;;;13.70;74.30;;;;;;5128069;27;20440;-57
2021/12/07 12:52:05;;;;;;;;;;;13.70;78.60;;;;;;5128459;27;19976;-58
2021/12/07 12:54:44;;;;;;;;;;;13.70;77.40;;;;;;5127523;27;19927;-57
2021/12/07 12:57:11;;;;;;;;;;;13.60;75.40;;;;;;5128761;27;20017;-58
2021/12/07 12:59:39;;;;;;;;;;;13.50;77.70;;;;;;5109484;27;19919;-57
2021/12/07 13:02:04;;;;;;;;;;;13.40;76.70;;;;;;5126103;27;19915;-57
2021/12/07 13:04:31;;;;;;;;;;;13.30;75.60;;;;;;5128554;27;19930;-57
2021/12/07 13:07:33;;;;;;;;;;;13.00;77.40;;;;;;5129417;27;20311;-57
2021/12/07 13:09:54;;;;;;;;;;;12.60;79.10;;;;;;5123451;27;19919;-57
2021/12/07 13:12:21;;;;;;;;;;;12.50;82.20;;;;;;5128701;27;20009;-57
2021/12/07 13:14:49;;;;;;;;;;;12.30;83.10;;;;;;5128724;27;19955;-57
2021/12/07 13:17:18;;;;;;;;;;;12.20;82.90;;;;;;5128357;27;19916;-57
2021/12/07 13:20:02;;;;;;;;;;;12.10;84.60;;;;;;5128566;27;20372;-57
2021/12/07 13:22:34;;;;;;;;;;;11.90;85.60;;;;;;5129263;27;19921;-56
2021/12/07 13:25:05;;;;;;;;;;;11.80;88.60;;;;;;5127818;27;19938;-57
2021/12/07 13:27:30;;;;;;;;;;;11.50;88.50;;;;;;5128048;27;19922;-57
2021/12/07 13:29:56;;;;;;;;;;;11.30;88.40;;;;;;5128569;27;20384;-57
2021/12/07 13:32:21;;;;;;;;;;;11.10;91.10;;;;;;5134183;27;19919;-57
2021/12/07 13:34:58;;;;;;;;;;;10.90;90.90;;;;;;5128611;27;19959;-57
2021/12/07 13:37:42;;;;;;;;;;;10.60;91.60;;;;;;5128149;27;20368;-57
2021/12/07 13:40:15;;;;;;;;;;;10.30;92.40;;;;;;5128796;27;19927;-56
2021/12/07 13:42:45;;;;;;;;;;;10.30;93.20;;;;;;5127099;27;19915;-57
2021/12/07 13:45:12;;;;;;;;;;;10.10;93.30;;;;;;5127161;27;19966;-57
2021/12/07 13:47:42;;;;;;;;;;;9.80;93.40;;;;;;5122127;27;19934;-57
2021/12/07 13:50:12;;;;;;;;;;;9.40;94.00;;;;;;5126681;27;19927;-57
2021/12/07 13:52:39;;;;;;;;;;;9.20;94.60;;;;;;5128034;27;19915;-57
2021/12/07 13:55:07;;;;;;;;;;;8.80;95.50;;;;;;5127579;27;19916;-57
2021/12/07 13:57:35;;;;;;;;;;;8.40;96.10;;;;;;5127270;27;19958;-57
2021/12/07 14:00:12;;;;;;;;;;;8.10;96.80;;;;;;5119917;27;20012;-58
2021/12/07 14:02:39;;;;;;;;;;;7.70;97.50;;;;;;5125243;27;20399;-57
2021/12/07 14:05:06;;;;;;;;;;;7.50;98.10;;;;;;5127137;27;19923;-57
2021/12/07 14:07:32;;;;;;;;;;;7.40;98.50;;;;;;5125296;27;20052;-58
2021/12/07 14:10:06;;;;;;;;;;;7.20;99.00;;;;;;5125758;27;19954;-57
2021/12/07 14:12:31;;;;;;;;;;;7.00;99.30;;;;;;5125623;27;20100;-57
2021/12/07 14:15:04;;;;;;;;;;;6.70;99.60;;;;;;5126298;27;19919;-57
2021/12/07 14:17:43;;;;;;;;;;;6.60;99.90;;;;;;5127595;27;20372;-57
2021/12/07 14:20:09;;;;;;;;;;;6.40;99.90;;;;;;5126699;27;19915;-57
2021/12/07 14:22:34;;;;;;;;;;;6.20;99.90;;;;;;5127003;27;20051;-56
2021/12/07 14:25:00;;;;;;;;;;;6.10;99.90;;;;;;5126655;27;19919;-58
2021/12/07 14:27:26;;;;;;;;;;;5.90;99.90;;;;;;5126371;27;19919;-57
2021/12/07 14:29:52;;;;;;;;;;;5.80;99.90;;;;;;5126381;27;19923;-57
2021/12/07 14:32:17;;;;;;;;;;;5.80;99.90;;;;;;5127629;27;20010;-57
2021/12/07 14:34:45;;;;;;;;;;;5.70;99.90;;;;;;5124960;27;20320;-56
2021/12/07 14:37:11;;;;;;;;;;;5.60;99.90;;;;;;5127164;27;19915;-56
2021/12/07 14:39:38;;;;;;;;;;;5.50;99.90;;;;;;5125942;27;20384;-56
2021/12/07 14:42:04;;;;;;;;;;;5.40;99.90;;;;;;5123452;27;20340;-57
2021/12/07 14:44:33;;;;;;;;;;;5.30;99.90;;;;;;5126325;27;19919;-58
2021/12/07 14:47:05;;;;;;;;;;;5.30;99.90;;;;;;5124453;27;20334;-57
2021/12/07 14:49:32;;;;;;;;;;;5.20;99.90;;;;;;5117863;27;19926;-57
2021/12/07 14:51:57;;;;;;;;;;;5.20;99.90;;;;;;5125727;27;19919;-56
2021/12/07 14:54:23;;;;;;;;;;;5.20;99.90;;;;;;5125241;27;19945;-57
2021/12/07 14:56:49;;;;;;;;;;;5.10;99.90;;;;;;5125745;27;19919;-57
2021/12/07 14:59:17;;;;;;;;;;;5.00;99.90;;;;;;5125586;27;19919;-57
2021/12/07 15:01:44;;;;;;;;;;;5.00;99.90;;;;;;5126221;27;19923;-56
2021/12/07 15:04:11;;;;;;;;;;;4.90;99.90;;;;;;5121089;27;19926;-56
2021/12/07 15:06:42;;;;;;;;;;;4.80;99.90;;;;;;5107217;27;19916;-57
2021/12/07 15:09:08;;;;;;;;;;;4.80;99.90;;;;;;5124409;27;20300;-56
2021/12/07 15:11:35;;;;;;;;;;;4.70;99.90;;;;;;5126219;27;19930;-57
2021/12/07 15:14:02;;;;;;;;;;;4.70;99.90;;;;;;5125816;27;19940;-56
2021/12/07 15:16:28;;;;;;;;;;;4.60;99.90;;;;;;5127196;28;19919;-57
2021/12/07 15:18:53;;;;;;;;;;;4.60;99.90;;;;;;5096670;28;19915;-57
2021/12/07 15:21:20;;;;;;;;;;;4.50;99.90;;;;;;5123947;28;20392;-56
2021/12/07 15:23:48;;;;;;;;;;;4.50;99.90;;;;;;5113066;28;19920;-56
2021/12/07 15:26:15;;;;;;;;;;;4.50;99.90;;;;;;5123903;27;19964;-57
2021/12/07 15:28:57;;;;;;;;;;;4.40;99.90;;;;;;5114853;28;20281;-59
2021/12/07 15:31:24;;;;;;;;;;;4.40;99.90;;;;;;5127467;27;19923;-57
2021/12/07 15:33:50;;;;;;;;;;;4.40;99.90;;;;;;5127262;27;20346;-57